Time;durP1;ratioP1;P1;durP2;ratioP2;P2;SDS_P1;SDS_P2;PMS_P1;PMS_P2;Temp;Humidity;BMP_temperature;BMP_pressure;BME280_temperature;BME280_humidity;BME280_pressure;Samples;Min_cycle;Max_cycle;Signal;HPM_P1;HPM_P2
2021/01/18 00:00:23;;;;;;;48.45;27.95;;;-0.30;78.60;;;;;;5070440;28;20127;-62
2021/01/18 00:02:48;;;;;;;46.08;28.02;;;-0.30;78.90;;;;;;5068316;28;20033;-63
2021/01/18 00:05:14;;;;;;;48.33;28.05;;;-0.30;78.90;;;;;;5050756;28;20503;-63
2021/01/18 00:07:47;;;;;;;40.72;25.75;;;-0.30;80.00;;;;;;5052411;28;20057;-63
2021/01/18 00:10:14;;;;;;;44.50;28.60;;;-0.30;80.00;;;;;;5072893;28;20045;-60
2021/01/18 00:12:44;;;;;;;44.67;28.92;;;-0.30;80.10;;;;;;5074126;28;20029;-64
2021/01/18 00:15:10;;;;;;;45.85;28.58;;;-0.30;80.30;;;;;;5054811;28;20090;-64
2021/01/18 00:17:35;;;;;;;46.38;27.40;;;-0.30;81.40;;;;;;5033101;28;20028;-65
2021/01/18 00:20:01;;;;;;;47.00;29.17;;;-0.30;81.40;;;;;;5036885;28;20055;-64
2021/01/18 00:22:27;;;;;;;44.78;27.38;;;-0.30;81.50;;;;;;5037061;28;20044;-63
2021/01/18 00:24:52;;;;;;;42.30;28.02;;;-0.30;81.90;;;;;;5071470;28;20098;-63
2021/01/18 00:27:18;;;;;;;49.63;29.58;;;-0.30;82.40;;;;;;5055780;28;20491;-64
2021/01/18 00:29:43;;;;;;;47.72;28.52;;;-0.40;83.30;;;;;;5053268;28;20069;-64
2021/01/18 00:32:09;;;;;;;48.85;29.45;;;-0.40;84.10;;;;;;5068688;28;20041;-63
2021/01/18 00:34:35;;;;;;;47.15;28.55;;;-0.40;84.10;;;;;;5072830;28;20130;-63
2021/01/18 00:37:01;;;;;;;47.15;28.60;;;-0.50;84.90;;;;;;5059796;28;20325;-64
2021/01/18 00:39:26;;;;;;;51.67;30.60;;;-0.50;85.20;;;;;;5037925;28;20040;-63
2021/01/18 00:41:52;;;;;;;48.95;31.10;;;-0.50;86.00;;;;;;5075836;28;20032;-63
2021/01/18 00:44:17;;;;;;;45.50;28.38;;;-0.50;85.80;;;;;;5076301;28;20068;-63
2021/01/18 00:46:46;;;;;;;48.67;28.85;;;-0.40;86.10;;;;;;5053149;28;20060;-63
2021/01/18 00:49:12;;;;;;;48.63;30.48;;;-0.30;85.70;;;;;;5070176;28;20055;-63
2021/01/18 00:51:38;;;;;;;45.92;28.98;;;-0.30;85.90;;;;;;5072682;28;20037;-63
2021/01/18 00:54:05;;;;;;;47.70;29.40;;;-0.30;86.20;;;;;;5071480;28;20048;-63
2021/01/18 00:56:30;;;;;;;49.35;30.13;;;-0.30;86.70;;;;;;5046608;28;20082;-64
2021/01/18 00:58:56;;;;;;;50.28;30.83;;;-0.30;86.60;;;;;;5059262;28;20048;-64
2021/01/18 01:01:22;;;;;;;49.42;29.40;;;-0.30;86.60;;;;;;5072680;28;20033;-63
2021/01/18 01:03:48;;;;;;;49.78;30.60;;;-0.20;86.50;;;;;;5071688;28;20162;-63
2021/01/18 01:06:13;;;;;;;56.20;31.45;;;-0.40;87.30;;;;;;5046936;28;20471;-64
2021/01/18 01:08:39;;;;;;;53.65;31.55;;;-0.40;88.10;;;;;;5062655;28;20046;-63
2021/01/18 01:11:05;;;;;;;51.85;32.17;;;-0.50;88.20;;;;;;5059720;28;20033;-64
2021/01/18 01:13:30;;;;;;;55.03;33.00;;;-0.50;88.80;;;;;;5062071;28;20045;-64
2021/01/18 01:15:57;;;;;;;54.00;32.72;;;-0.50;88.60;;;;;;5062739;28;20041;-63
2021/01/18 01:18:23;;;;;;;60.35;32.50;;;-0.50;88.90;;;;;;5059098;28;20029;-63
2021/01/18 01:20:48;;;;;;;58.05;33.05;;;-0.60;89.40;;;;;;5033215;28;20048;-63
2021/01/18 01:23:14;;;;;;;52.00;30.60;;;-0.50;89.20;;;;;;5063088;28;20044;-63
2021/01/18 01:25:39;;;;;;;52.85;31.67;;;-0.50;89.20;;;;;;5059876;28;20041;-62
2021/01/18 01:28:05;;;;;;;53.80;31.83;;;-0.40;88.80;;;;;;5062074;28;20107;-62
2021/01/18 01:30:31;;;;;;;50.17;30.25;;;-0.40;89.00;;;;;;5044700;28;20308;-63
2021/01/18 01:32:56;;;;;;;50.38;29.40;;;-0.30;88.70;;;;;;5062229;28;20040;-63
2021/01/18 01:35:24;;;;;;;51.90;31.23;;;-0.20;88.50;;;;;;5069638;28;20571;-63
2021/01/18 01:37:50;;;;;;;53.15;31.27;;;-0.20;88.10;;;;;;5070686;28;20045;-64
2021/01/18 01:40:17;;;;;;;54.25;32.22;;;-0.10;88.00;;;;;;5073354;28;20025;-64
2021/01/18 01:42:43;;;;;;;51.75;31.40;;;-0.10;87.60;;;;;;5052094;28;20070;-62
2021/01/18 01:45:11;;;;;;;52.72;31.23;;;-0.10;87.70;;;;;;5063794;28;20044;-62
2021/01/18 01:47:43;;;;;;;53.50;31.77;;;-0.20;88.20;;;;;;5061635;28;20111;-62
2021/01/18 01:50:22;;;;;;;50.63;31.67;;;-0.20;88.60;;;;;;5063042;28;20035;-63
2021/01/18 01:53:05;;;;;;;55.75;33.92;;;-0.20;88.40;;;;;;5072082;28;20031;-62
2021/01/18 01:55:32;;;;;;;55.63;34.67;;;-0.20;88.50;;;;;;5072320;28;20495;-62
2021/01/18 01:58:00;;;;;;;53.90;32.00;;;-0.20;88.90;;;;;;5065015;28;20536;-62
2021/01/18 02:00:37;;;;;;;54.38;32.50;;;-0.20;89.50;;;;;;5052728;28;20048;-62
2021/01/18 02:03:11;;;;;;;52.53;33.22;;;-0.10;88.80;;;;;;5058519;28;20124;-62
2021/01/18 02:05:38;;;;;;;55.05;33.00;;;-0.10;88.00;;;;;;5056468;28;20045;-62
2021/01/18 02:08:07;;;;;;;58.38;34.35;;;-0.30;89.00;;;;;;5070949;28;20040;-62
2021/01/18 02:10:34;;;;;;;56.00;32.13;;;-0.40;90.10;;;;;;5068695;28;20037;-62
2021/01/18 02:13:04;;;;;;;52.45;32.92;;;-0.20;89.70;;;;;;5060032;28;20410;-62
2021/01/18 02:15:44;;;;;;;55.15;33.33;;;-0.30;89.70;;;;;;5069279;28;20357;-62
2021/01/18 02:18:35;;;;;;;55.97;33.63;;;-0.40;90.00;;;;;;5056633;28;20043;-62
2021/01/18 02:21:19;;;;;;;57.55;33.25;;;-0.50;90.30;;;;;;5058813;28;20083;-63
2021/01/18 02:24:23;;;;;;;55.47;33.28;;;-0.40;90.30;;;;;;5052512;28;20036;-63
2021/01/18 02:27:02;;;;;;;58.72;35.25;;;-0.40;90.10;;;;;;5052506;28;20048;-63
2021/01/18 02:29:52;;;;;;;57.95;34.55;;;-0.50;90.40;;;;;;5064417;28;20033;-64
2021/01/18 02:32:53;;;;;;;59.83;35.55;;;-0.30;90.10;;;;;;5064923;28;20036;-64
2021/01/18 02:35:37;;;;;;;56.85;35.05;;;-0.30;90.10;;;;;;5064851;28;20032;-64
2021/01/18 02:38:26;;;;;;;57.08;33.30;;;-0.30;90.00;;;;;;5073411;28;20036;-64
2021/01/18 02:41:00;;;;;;;59.58;35.05;;;-0.30;89.50;;;;;;5060846;28;20048;-64
2021/01/18 02:43:36;;;;;;;60.85;35.53;;;-0.40;90.00;;;;;;5072042;28;20035;-63
2021/01/18 02:46:03;;;;;;;57.65;35.78;;;-0.40;90.10;;;;;;5055857;28;20130;-63
2021/01/18 02:48:31;;;;;;;61.53;35.90;;;-0.60;90.60;;;;;;5052179;28;20071;-64
2021/01/18 02:51:01;;;;;;;57.72;34.67;;;-0.60;90.40;;;;;;5065854;28;20127;-64
2021/01/18 02:53:27;;;;;;;60.40;33.95;;;-0.50;90.30;;;;;;5054076;28;20037;-63
2021/01/18 02:55:53;;;;;;;56.75;33.58;;;-0.50;90.20;;;;;;5071640;28;20093;-64
2021/01/18 02:58:22;;;;;;;66.38;36.88;;;-0.60;90.40;;;;;;5071304;28;20036;-63
2021/01/18 03:01:19;;;;;;;61.17;34.83;;;-0.60;90.50;;;;;;5071637;28;20077;-64
2021/01/18 03:04:09;;;;;;;61.67;35.38;;;-0.60;90.40;;;;;;5059167;28;20419;-64
2021/01/18 03:06:54;;;;;;;58.42;35.08;;;-0.60;91.10;;;;;;5051884;28;20028;-64
2021/01/18 03:09:25;;;;;;;62.45;36.67;;;-0.40;90.20;;;;;;5062306;28;20028;-62
2021/01/18 03:11:57;;;;;;;57.83;34.50;;;-0.40;90.30;;;;;;5034536;28;20059;-64
2021/01/18 03:14:29;;;;;;;57.88;35.22;;;-0.40;90.30;;;;;;5068298;28;20491;-63
2021/01/18 03:16:57;;;;;;;59.00;34.88;;;-0.30;90.10;;;;;;5056148;28;20064;-63
2021/01/18 03:19:41;;;;;;;59.97;36.58;;;-0.30;90.00;;;;;;5064527;28;20040;-63
2021/01/18 03:22:20;;;;;;;58.85;34.67;;;-0.40;90.30;;;;;;5037473;28;20045;-63
2021/01/18 03:24:46;;;;;;;57.22;34.75;;;-0.40;90.20;;;;;;5053590;28;20064;-63
2021/01/18 03:27:13;;;;;;;61.80;37.25;;;-0.40;90.20;;;;;;5068966;28;20428;-64
2021/01/18 03:29:39;;;;;;;62.67;36.53;;;-0.50;90.60;;;;;;5050088;28;20094;-63
2021/01/18 03:32:06;;;;;;;63.45;35.42;;;-0.50;90.80;;;;;;5051823;28;20037;-63
2021/01/18 03:34:36;;;;;;;68.07;37.15;;;-0.60;91.00;;;;;;5051099;28;20037;-63
2021/01/18 03:37:02;;;;;;;71.50;38.33;;;-0.50;91.00;;;;;;5052078;28;20028;-63
2021/01/18 03:39:28;;;;;;;68.25;38.05;;;-0.50;90.80;;;;;;5083384;28;20056;-63
2021/01/18 03:41:54;;;;;;;73.55;39.75;;;-0.50;91.20;;;;;;5072495;28;20074;-62
2021/01/18 03:44:19;;;;;;;74.57;40.45;;;-0.50;91.20;;;;;;5056883;28;20052;-64
2021/01/18 03:46:46;;;;;;;77.25;42.78;;;-0.50;91.50;;;;;;5067623;28;20068;-64
2021/01/18 03:49:12;;;;;;;77.93;41.15;;;-0.60;91.90;;;;;;5076065;28;20567;-63
2021/01/18 03:51:38;;;;;;;74.47;40.53;;;-0.60;92.10;;;;;;5074932;28;20479;-64
2021/01/18 03:54:04;;;;;;;78.88;43.22;;;-0.60;91.90;;;;;;5074184;28;20036;-64
2021/01/18 03:56:30;;;;;;;81.20;42.83;;;-0.60;92.10;;;;;;5074614;28;20055;-63
2021/01/18 03:58:55;;;;;;;72.57;41.63;;;-0.70;92.40;;;;;;5069708;28;20048;-64
2021/01/18 04:01:21;;;;;;;79.25;42.92;;;-0.50;92.30;;;;;;5055170;28;20064;-63
2021/01/18 04:03:47;;;;;;;77.18;40.15;;;-0.40;91.70;;;;;;5062411;28;20037;-64
2021/01/18 04:06:12;;;;;;;78.07;41.35;;;-0.30;91.50;;;;;;5048397;28;20087;-64
2021/01/18 04:08:40;;;;;;;72.63;40.20;;;-0.20;91.70;;;;;;5056577;28;20139;-62
2021/01/18 04:11:06;;;;;;;71.60;39.38;;;-0.10;91.30;;;;;;5054975;28;20507;-63
2021/01/18 04:13:31;;;;;;;79.00;42.13;;;0.00;91.10;;;;;;5058206;28;20063;-64
2021/01/18 04:15:57;;;;;;;77.55;40.05;;;-0.20;91.50;;;;;;5074756;28;20501;-64
2021/01/18 04:18:23;;;;;;;77.45;42.90;;;-0.10;91.80;;;;;;5073041;28;20579;-64
2021/01/18 04:20:49;;;;;;;79.60;41.10;;;-0.10;91.40;;;;;;5056178;28;20167;-64
2021/01/18 04:23:14;;;;;;;73.05;39.17;;;0.00;91.50;;;;;;5075016;28;20123;-64
2021/01/18 04:25:40;;;;;;;80.72;41.28;;;0.10;91.20;;;;;;5073162;28;20044;-64
2021/01/18 04:28:06;;;;;;;81.75;43.22;;;0.10;91.10;;;;;;5074876;28;20056;-64
2021/01/18 04:30:34;;;;;;;79.53;39.10;;;0.10;91.10;;;;;;5075144;28;20101;-64
2021/01/18 04:33:03;;;;;;;78.57;41.05;;;0.20;91.00;;;;;;5056857;28;20060;-64
2021/01/18 04:35:29;;;;;;;80.72;42.55;;;0.20;91.20;;;;;;5066771;28;20031;-64
2021/01/18 04:37:56;;;;;;;81.78;42.60;;;0.10;91.40;;;;;;5067325;28;20634;-64
2021/01/18 04:40:24;;;;;;;82.90;43.33;;;0.10;91.50;;;;;;5067732;28;20044;-62
2021/01/18 04:42:49;;;;;;;79.53;41.47;;;0.00;91.70;;;;;;5060868;28;20047;-63
2021/01/18 04:45:19;;;;;;;83.78;41.15;;;0.10;91.50;;;;;;5074273;28;20037;-64
2021/01/18 04:47:46;;;;;;;76.25;40.67;;;0.20;91.40;;;;;;5074489;28;20040;-64
2021/01/18 04:50:20;;;;;;;76.63;39.28;;;0.20;91.40;;;;;;5060992;28;20025;-64
2021/01/18 04:52:46;;;;;;;77.32;39.92;;;0.20;91.80;;;;;;5074185;28;20037;-65
2021/01/18 04:55:43;;;;;;;76.32;39.00;;;0.40;91.50;;;;;;5072985;28;20479;-64
2021/01/18 04:58:09;;;;;;;79.85;41.88;;;0.50;90.90;;;;;;5074268;28;20067;-63
2021/01/18 05:00:53;;;;;;;77.88;40.65;;;0.40;91.00;;;;;;5059198;28;20067;-64
2021/01/18 05:03:21;;;;;;;76.22;39.25;;;0.40;91.40;;;;;;5057204;28;20033;-64
2021/01/18 05:06:05;;;;;;;77.03;38.58;;;0.40;91.30;;;;;;5072151;28;20075;-64
2021/01/18 05:08:58;;;;;;;72.30;37.00;;;0.50;91.40;;;;;;5068617;28;20095;-64
2021/01/18 05:11:23;;;;;;;79.03;37.20;;;0.50;91.40;;;;;;5069928;28;20031;-63
2021/01/18 05:13:49;;;;;;;79.43;38.33;;;0.50;91.30;;;;;;5072567;28;20024;-62
2021/01/18 05:16:15;;;;;;;74.40;39.20;;;0.50;91.40;;;;;;5071577;28;20162;-63
2021/01/18 05:18:44;;;;;;;75.18;38.97;;;0.50;91.60;;;;;;5048832;28;20041;-63
2021/01/18 05:21:11;;;;;;;86.35;40.25;;;0.40;91.70;;;;;;5051218;28;20144;-63
2021/01/18 05:23:40;;;;;;;76.72;39.63;;;0.30;92.00;;;;;;5057808;28;20033;-63
2021/01/18 05:26:26;;;;;;;83.28;39.65;;;0.10;92.50;;;;;;5072935;28;20581;-63
2021/01/18 05:28:56;;;;;;;77.90;37.90;;;0.10;92.80;;;;;;5054126;28;20107;-63
2021/01/18 05:31:27;;;;;;;90.20;40.60;;;0.40;92.20;;;;;;5061435;28;20037;-63
2021/01/18 05:34:15;;;;;;;84.53;37.75;;;0.10;92.90;;;;;;5071533;28;20082;-63
2021/01/18 05:36:48;;;;;;;88.78;37.92;;;0.20;93.30;;;;;;5063196;28;20079;-63
2021/01/18 05:39:33;;;;;;;86.68;38.00;;;0.30;93.10;;;;;;5056977;28;20036;-63
2021/01/18 05:41:59;;;;;;;80.32;37.03;;;0.30;93.00;;;;;;5072457;28;20028;-63
2021/01/18 05:44:33;;;;;;;71.53;35.38;;;0.40;93.00;;;;;;5069192;28;20213;-64
2021/01/18 05:47:10;;;;;;;78.00;34.97;;;0.40;92.80;;;;;;5054238;28;20042;-63
2021/01/18 05:49:41;;;;;;;77.72;33.92;;;0.40;92.90;;;;;;5053499;28;20480;-62
2021/01/18 05:52:22;;;;;;;71.88;33.08;;;0.40;93.00;;;;;;5056321;28;20057;-63
2021/01/18 05:54:48;;;;;;;72.05;32.50;;;0.60;92.70;;;;;;5052942;28;20488;-64
2021/01/18 05:57:15;;;;;;;70.00;33.65;;;0.60;92.60;;;;;;5069044;28;20046;-64
2021/01/18 05:59:41;;;;;;;68.72;32.22;;;0.60;92.50;;;;;;5072853;28;20434;-64
2021/01/18 06:02:09;;;;;;;68.95;32.28;;;0.60;93.00;;;;;;5057451;28;20488;-64
2021/01/18 06:04:35;;;;;;;68.50;32.45;;;0.70;92.50;;;;;;5052670;28;20471;-63
2021/01/18 06:07:03;;;;;;;61.30;30.88;;;0.70;92.50;;;;;;5065689;28;20048;-67
2021/01/18 06:09:45;;;;;;;62.83;31.77;;;0.80;92.20;;;;;;5067566;28;20036;-64
2021/01/18 06:12:23;;;;;;;67.63;30.60;;;0.90;92.30;;;;;;5052847;28;20040;-63
2021/01/18 06:15:10;;;;;;;61.40;32.70;;;0.90;92.20;;;;;;5055939;28;20028;-64
2021/01/18 06:17:47;;;;;;;61.38;31.35;;;0.90;92.00;;;;;;5073632;28;20028;-64
2021/01/18 06:20:27;;;;;;;67.72;30.75;;;1.10;91.90;;;;;;5066062;28;20040;-64
2021/01/18 06:22:53;;;;;;;69.80;32.03;;;0.90;92.00;;;;;;5073657;28;20074;-64
2021/01/18 06:25:19;;;;;;;62.40;29.95;;;1.00;92.20;;;;;;5073653;28;20044;-64
2021/01/18 06:27:45;;;;;;;54.40;28.83;;;1.00;91.80;;;;;;5073297;28;20429;-65
2021/01/18 06:30:28;;;;;;;55.15;27.80;;;1.10;91.90;;;;;;5061581;28;20098;-64
2021/01/18 06:32:55;;;;;;;57.60;27.42;;;1.20;91.60;;;;;;5052663;28;20056;-66
2021/01/18 06:35:30;;;;;;;50.53;25.13;;;1.30;91.60;;;;;;5062591;28;20123;-66
2021/01/18 06:38:01;;;;;;;55.42;27.38;;;1.30;91.40;;;;;;5052507;28;20039;-64
2021/01/18 06:40:37;;;;;;;51.78;26.30;;;1.40;91.30;;;;;;5067486;28;20099;-64
2021/01/18 06:43:05;;;;;;;58.80;29.35;;;1.20;91.50;;;;;;5054488;28;20062;-63
2021/01/18 06:45:40;;;;;;;55.20;29.63;;;1.00;92.00;;;;;;5056629;28;20051;-65
2021/01/18 06:48:08;;;;;;;57.78;29.23;;;1.00;92.10;;;;;;5052782;28;20052;-64
2021/01/18 06:50:39;;;;;;;54.33;29.65;;;1.00;92.00;;;;;;5050953;28;20113;-66
2021/01/18 06:53:17;;;;;;;57.15;28.65;;;0.90;92.20;;;;;;5071755;28;20028;-65
2021/01/18 06:55:53;;;;;;;61.78;29.25;;;0.80;92.40;;;;;;5071364;28;20551;-65
2021/01/18 06:58:45;;;;;;;61.30;28.45;;;0.90;92.20;;;;;;5070366;28;20534;-63
2021/01/18 07:01:13;;;;;;;56.63;28.60;;;0.90;92.20;;;;;;5072005;28;20044;-64
2021/01/18 07:03:41;;;;;;;62.20;29.85;;;0.90;92.00;;;;;;5067247;28;20503;-64
2021/01/18 07:06:28;;;;;;;50.90;28.55;;;0.90;92.10;;;;;;5071509;28;20078;-64
2021/01/18 07:08:57;;;;;;;49.65;27.08;;;0.80;92.20;;;;;;5061312;28;20037;-65
2021/01/18 07:11:23;;;;;;;53.20;28.15;;;0.90;92.10;;;;;;5051592;28;20091;-62
2021/01/18 07:13:49;;;;;;;50.33;24.80;;;0.90;91.90;;;;;;5062860;28;20036;-65
2021/01/18 07:16:18;;;;;;;47.28;25.88;;;1.10;91.70;;;;;;5071924;28;20615;-66
2021/01/18 07:18:58;;;;;;;57.35;26.42;;;1.20;91.60;;;;;;5053974;28;20139;-63
2021/01/18 07:21:28;;;;;;;52.60;26.35;;;1.10;91.50;;;;;;5059143;28;20052;-64
2021/01/18 07:23:59;;;;;;;50.08;25.17;;;1.00;91.80;;;;;;5062983;28;20711;-65
2021/01/18 07:26:33;;;;;;;47.63;25.33;;;1.10;91.50;;;;;;5050912;28;20033;-64
2021/01/18 07:29:06;;;;;;;46.33;24.88;;;1.10;91.50;;;;;;5051625;28;20079;-65
2021/01/18 07:31:35;;;;;;;52.97;24.75;;;1.20;91.60;;;;;;5065584;28;20040;-63
2021/01/18 07:34:02;;;;;;;49.60;25.52;;;1.20;91.40;;;;;;5053339;28;20137;-64
2021/01/18 07:36:29;;;;;;;46.45;24.92;;;1.10;91.70;;;;;;5051547;28;20052;-64
2021/01/18 07:38:55;;;;;;;50.05;24.00;;;1.10;91.80;;;;;;5033965;28;20033;-64
2021/01/18 07:41:30;;;;;;;51.55;26.52;;;1.10;91.80;;;;;;5039219;28;20058;-65
2021/01/18 07:43:56;;;;;;;56.80;25.77;;;1.20;91.50;;;;;;5049610;28;20029;-64
2021/01/18 07:46:24;;;;;;;48.30;24.90;;;1.30;91.50;;;;;;5052246;28;20067;-64
2021/01/18 07:49:00;;;;;;;47.67;23.90;;;1.30;91.60;;;;;;5051015;28;20487;-64
2021/01/18 07:51:32;;;;;;;49.08;25.77;;;1.30;91.80;;;;;;5067922;28;20121;-65
2021/01/18 07:53:57;;;;;;;49.38;23.42;;;1.30;91.80;;;;;;5064925;28;20484;-64
2021/01/18 07:56:29;;;;;;;46.33;23.60;;;1.40;91.70;;;;;;5070898;28;20048;-62
2021/01/18 07:58:57;;;;;;;48.70;25.00;;;1.40;91.80;;;;;;5061560;28;20048;-64
2021/01/18 08:01:28;;;;;;;48.55;24.83;;;1.40;91.70;;;;;;5054556;28;20175;-64
2021/01/18 08:03:53;;;;;;;50.25;25.10;;;1.40;91.60;;;;;;5032984;28;20051;-64
2021/01/18 08:06:19;;;;;;;45.67;23.65;;;1.40;91.70;;;;;;5059394;28;20418;-64
2021/01/18 08:08:45;;;;;;;43.97;23.73;;;1.40;91.70;;;;;;5070107;28;20589;-64
2021/01/18 08:11:20;;;;;;;46.80;23.85;;;1.60;91.10;;;;;;5051134;28;20049;-64
2021/01/18 08:13:53;;;;;;;44.78;23.08;;;1.60;91.30;;;;;;5033765;28;20110;-63
2021/01/18 08:16:22;;;;;;;47.65;23.77;;;1.50;91.50;;;;;;5050477;28;20083;-63
2021/01/18 08:19:00;;;;;;;45.55;24.02;;;1.50;91.50;;;;;;5052628;28;20029;-64
2021/01/18 08:21:34;;;;;;;48.70;23.30;;;1.50;91.80;;;;;;5071467;28;20505;-66
2021/01/18 08:24:04;;;;;;;46.72;24.55;;;1.40;91.90;;;;;;5063270;28;20348;-63
2021/01/18 08:26:58;;;;;;;48.63;24.45;;;1.50;91.90;;;;;;5054767;28;20036;-65
2021/01/18 08:29:38;;;;;;;47.40;22.38;;;1.60;91.80;;;;;;5049064;28;20032;-65
2021/01/18 08:32:22;;;;;;;50.58;24.42;;;1.70;91.70;;;;;;5054135;28;20526;-64
2021/01/18 08:34:55;;;;;;;50.78;22.85;;;1.70;91.60;;;;;;5072210;28;20040;-64
2021/01/18 08:37:22;;;;;;;41.45;22.63;;;1.80;91.70;;;;;;5072898;28;20397;-62
2021/01/18 08:39:59;;;;;;;45.90;21.25;;;2.00;91.20;;;;;;5061529;28;20044;-65
2021/01/18 08:42:26;;;;;;;42.80;21.10;;;2.00;91.20;;;;;;5063876;28;20492;-65
2021/01/18 08:45:19;;;;;;;37.83;20.67;;;2.10;90.90;;;;;;5057741;28;20044;-64
2021/01/18 08:47:55;;;;;;;40.70;21.98;;;2.10;91.10;;;;;;5054363;28;20158;-64
2021/01/18 08:50:24;;;;;;;45.80;21.05;;;2.10;91.30;;;;;;5066889;28;20395;-65
2021/01/18 08:52:54;;;;;;;40.08;21.30;;;2.10;91.10;;;;;;5055419;28;20193;-63
2021/01/18 08:55:29;;;;;;;44.80;20.25;;;2.20;90.80;;;;;;5054272;28;20626;-63
2021/01/18 08:57:59;;;;;;;44.65;19.15;;;2.40;90.60;;;;;;5054893;28;20124;-63
2021/01/18 09:00:36;;;;;;;33.58;19.23;;;2.40;90.50;;;;;;5054843;28;20502;-64
2021/01/18 09:03:02;;;;;;;36.65;18.27;;;2.40;90.70;;;;;;5062978;28;20395;-64
2021/01/18 09:05:28;;;;;;;38.65;19.38;;;2.40;90.70;;;;;;5074664;28;20037;-64
2021/01/18 09:07:55;;;;;;;33.85;18.52;;;2.50;90.60;;;;;;5067661;28;20029;-64
2021/01/18 09:10:22;;;;;;;40.83;17.95;;;2.40;90.80;;;;;;5061696;28;20383;-63
2021/01/18 09:12:49;;;;;;;33.85;16.15;;;2.60;90.70;;;;;;5057003;28;20028;-64
2021/01/18 09:15:18;;;;;;;36.55;17.58;;;2.70;90.10;;;;;;5072889;28;20406;-68
2021/01/18 09:17:44;;;;;;;32.38;15.70;;;2.80;90.30;;;;;;5059041;28;20085;-67
2021/01/18 09:20:11;;;;;;;37.65;18.23;;;2.90;89.80;;;;;;5055760;28;20036;-66
2021/01/18 09:22:41;;;;;;;34.47;15.23;;;2.80;90.20;;;;;;5040788;28;20048;-64
2021/01/18 09:25:08;;;;;;;29.75;13.98;;;3.00;89.90;;;;;;5075135;28;20042;-64
2021/01/18 09:27:35;;;;;;;30.30;15.13;;;3.10;89.50;;;;;;5064241;28;20025;-67
2021/01/18 09:30:11;;;;;;;28.30;14.23;;;2.90;90.00;;;;;;5058259;28;20033;-66
2021/01/18 09:32:38;;;;;;;27.33;14.25;;;3.10;89.60;;;;;;5058605;28;20041;-64
2021/01/18 09:35:14;;;;;;;34.20;14.90;;;2.90;90.00;;;;;;5073869;28;20097;-66
2021/01/18 09:37:42;;;;;;;30.13;14.15;;;3.00;89.90;;;;;;5055188;28;20480;-64
2021/01/18 09:40:08;;;;;;;27.95;12.63;;;3.10;89.70;;;;;;5054569;28;20033;-64
2021/01/18 09:42:35;;;;;;;32.13;14.05;;;3.00;89.70;;;;;;5041792;28;20190;-65
2021/01/18 09:45:08;;;;;;;26.40;12.82;;;3.00;89.90;;;;;;5069639;28;20024;-62
2021/01/18 09:47:35;;;;;;;25.50;12.63;;;3.10;89.50;;;;;;5074585;28;20115;-64
2021/01/18 09:50:15;;;;;;;26.77;12.25;;;3.10;89.40;;;;;;5073477;28;20114;-68
2021/01/18 09:52:42;;;;;;;27.83;13.25;;;3.10;89.50;;;;;;5053959;28;20066;-63
2021/01/18 09:55:32;;;;;;;26.35;13.75;;;3.20;89.10;;;;;;5073369;28;20115;-65
2021/01/18 09:58:12;;;;;;;26.48;11.95;;;3.30;88.50;;;;;;5059316;28;20411;-64
2021/01/18 10:00:40;;;;;;;30.90;10.95;;;3.40;88.20;;;;;;5053553;28;20029;-67
2021/01/18 10:03:07;;;;;;;21.15;11.48;;;3.50;87.70;;;;;;5057756;28;20380;-65
2021/01/18 10:05:37;;;;;;;22.50;12.07;;;3.50;87.40;;;;;;5071137;28;20072;-64
2021/01/18 10:08:21;;;;;;;25.20;10.82;;;3.40;88.00;;;;;;5067492;28;20033;-68
2021/01/18 10:10:51;;;;;;;28.90;9.88;;;3.50;87.40;;;;;;5053122;28;20029;-64
2021/01/18 10:13:23;;;;;;;19.75;9.95;;;3.60;86.90;;;;;;5053543;28;20048;-66
2021/01/18 10:15:49;;;;;;;20.50;9.00;;;3.70;86.60;;;;;;5052541;28;20395;-66
2021/01/18 10:18:50;;;;;;;26.10;9.23;;;3.70;86.80;;;;;;5059600;28;20032;-67
2021/01/18 10:21:16;;;;;;;20.10;8.68;;;3.70;86.50;;;;;;5011275;28;20529;-67
2021/01/18 10:23:46;;;;;;;17.98;8.88;;;3.80;86.10;;;;;;5049767;28;20057;-66
2021/01/18 10:26:18;;;;;;;18.90;8.90;;;3.90;85.80;;;;;;5052423;28;20033;-66
2021/01/18 10:28:52;;;;;;;16.75;7.90;;;4.00;85.60;;;;;;5061998;28;20032;-65
2021/01/18 10:31:38;;;;;;;18.45;7.57;;;3.90;86.00;;;;;;5072350;28;20035;-65
2021/01/18 10:34:25;;;;;;;16.75;8.00;;;4.10;85.30;;;;;;5070043;28;20045;-65
2021/01/18 10:40:40;;;;;;;14.38;7.95;;;4.00;85.00;;;;;;4978319;28;20121;-64
2021/01/18 10:43:06;;;;;;;16.10;7.63;;;3.90;85.40;;;;;;5010303;28;20113;-65
2021/01/18 10:45:39;;;;;;;16.75;8.02;;;3.90;84.80;;;;;;5059680;28;20567;-65
2021/01/18 10:48:05;;;;;;;19.50;8.43;;;3.80;86.00;;;;;;5061333;28;20047;-66
2021/01/18 10:50:31;;;;;;;13.85;8.13;;;3.90;85.70;;;;;;5061075;28;20574;-65
2021/01/18 10:53:15;;;;;;;17.75;7.82;;;3.90;85.60;;;;;;5050645;28;20068;-65
2021/01/18 10:55:41;;;;;;;17.13;8.20;;;4.10;87.20;;;;;;5058353;28;20131;-64
2021/01/18 10:58:06;;;;;;;18.65;8.38;;;4.30;84.60;;;;;;5057694;28;20477;-66
2021/01/18 11:00:33;;;;;;;20.33;8.95;;;4.30;84.20;;;;;;5060061;28;20056;-65
2021/01/18 11:03:01;;;;;;;21.58;7.55;;;4.30;83.90;;;;;;5062235;28;20526;-65
2021/01/18 11:05:29;;;;;;;19.88;8.35;;;4.40;83.60;;;;;;5044108;28;20041;-64
2021/01/18 11:07:57;;;;;;;15.23;8.45;;;4.40;83.30;;;;;;5059039;28;20470;-65
2021/01/18 11:10:24;;;;;;;18.85;8.23;;;4.20;84.30;;;;;;5059194;28;20044;-65
2021/01/18 11:12:58;;;;;;;19.70;8.38;;;4.00;85.00;;;;;;5056292;28;20076;-65
2021/01/18 11:15:29;;;;;;;16.13;8.40;;;4.10;85.20;;;;;;5051771;28;20115;-64
2021/01/18 11:17:54;;;;;;;14.13;7.22;;;4.20;84.50;;;;;;5060009;28;20052;-64
2021/01/18 11:20:25;;;;;;;17.40;8.98;;;4.30;84.20;;;;;;5057933;28;20037;-65
2021/01/18 11:22:50;;;;;;;16.58;8.40;;;4.40;83.50;;;;;;5058276;28;20062;-65
2021/01/18 11:25:20;;;;;;;16.70;9.18;;;4.50;83.50;;;;;;5053169;28;20115;-65
2021/01/18 11:27:48;;;;;;;18.15;8.48;;;4.50;83.40;;;;;;5064210;28;20028;-65
2021/01/18 11:30:15;;;;;;;16.58;8.77;;;4.50;83.60;;;;;;5040179;28;20044;-65
2021/01/18 11:32:41;;;;;;;16.90;8.32;;;4.50;83.70;;;;;;5052739;28;20040;-65
2021/01/18 11:35:09;;;;;;;20.63;9.38;;;4.50;84.00;;;;;;5059544;28;20111;-64
2021/01/18 11:37:35;;;;;;;15.75;8.20;;;4.50;84.00;;;;;;5059224;28;20412;-64
2021/01/18 11:40:05;;;;;;;20.10;9.32;;;4.50;84.30;;;;;;5060441;28;20032;-64
2021/01/18 11:42:33;;;;;;;14.85;8.80;;;4.50;84.20;;;;;;5058099;28;20099;-65
2021/01/18 11:44:59;;;;;;;16.58;8.40;;;4.30;85.00;;;;;;5061807;28;20471;-62
2021/01/18 11:47:32;;;;;;;16.52;7.90;;;4.30;85.20;;;;;;5056903;28;20399;-66
2021/01/18 11:49:58;;;;;;;13.25;8.90;;;4.20;85.60;;;;;;5066395;28;20025;-63
2021/01/18 11:52:23;;;;;;;22.00;10.65;;;4.10;85.80;;;;;;5051762;28;20048;-65
2021/01/18 11:54:49;;;;;;;18.48;9.90;;;4.10;85.80;;;;;;5051771;28;20044;-64
2021/01/18 11:57:14;;;;;;;15.43;10.23;;;4.10;85.70;;;;;;5058832;28;20102;-63
2021/01/18 11:59:40;;;;;;;18.90;10.05;;;4.20;85.40;;;;;;5072381;28;20070;-65
2021/01/18 12:02:06;;;;;;;19.67;10.90;;;4.10;85.60;;;;;;5072650;28;20569;-64
2021/01/18 12:04:32;;;;;;;20.48;10.40;;;4.10;85.30;;;;;;5071698;28;20043;-64
2021/01/18 12:06:58;;;;;;;16.88;10.80;;;4.10;85.60;;;;;;5078591;28;20045;-63
2021/01/18 12:09:24;;;;;;;19.80;10.70;;;4.20;85.00;;;;;;5065081;28;20171;-64
2021/01/18 12:15:37;;;;;;;;;;;;;;;;;;;;;
2021/01/18 12:18:04;;;;;;;21.05;11.10;;;4.20;84.70;;;;;;5053077;28;20028;-66
2021/01/18 12:20:30;;;;;;;19.25;11.20;;;4.20;84.60;;;;;;5062111;28;20086;-64
2021/01/18 12:23:12;;;;;;;21.83;12.85;;;4.20;83.90;;;;;;5066020;28;20051;-71
2021/01/18 12:25:38;;;;;;;22.92;13.10;;;4.30;83.40;;;;;;5028598;28;20127;-65
2021/01/18 12:28:04;;;;;;;19.83;11.88;;;4.20;83.80;;;;;;5059729;28;20115;-65
2021/01/18 12:30:32;;;;;;;21.35;12.50;;;4.30;83.30;;;;;;5071916;28;20123;-65
2021/01/18 12:32:58;;;;;;;18.13;12.30;;;4.20;83.70;;;;;;5063251;28;20432;-71
2021/01/18 12:35:23;;;;;;;20.88;12.40;;;4.20;83.90;;;;;;5072952;28;20102;-66
2021/01/18 12:38:29;;;;;;;18.30;11.43;;;4.30;83.50;;;;;;5052010;28;20494;-69
2021/01/18 12:41:08;;;;;;;19.17;11.52;;;4.30;83.60;;;;;;5063930;28;20056;-66
2021/01/18 12:44:03;;;;;;;19.25;10.75;;;4.30;83.50;;;;;;5063188;28;20029;-68
2021/01/18 12:46:35;;;;;;;22.20;11.50;;;4.20;83.90;;;;;;5040055;28;20486;-66
2021/01/18 12:49:00;;;;;;;17.85;10.68;;;4.20;83.90;;;;;;5051678;28;20047;-64
2021/01/18 12:51:26;;;;;;;29.10;10.88;;;4.20;84.00;;;;;;5072230;28;20082;-66
2021/01/18 12:53:54;;;;;;;20.83;11.10;;;4.20;84.20;;;;;;5075908;28;20045;-65
2021/01/18 12:56:24;;;;;;;19.17;10.32;;;4.20;84.10;;;;;;5071894;28;20029;-66
2021/01/18 12:58:50;;;;;;;19.35;12.15;;;4.20;84.10;;;;;;5053300;28;20086;-64
2021/01/18 13:01:15;;;;;;;17.15;10.82;;;4.10;84.30;;;;;;5036705;28;20044;-65